sensor_id;sensor_type;location;lat;lon;timestamp;P1;durP1;ratioP1;P2;durP2;ratioP2
66933;SDS011;53846;51.984;5.890;2022-07-05T00:00:14;76.93;;;73.13;;
66933;SDS011;53846;51.984;5.890;2022-07-05T00:02:46;79.00;;;75.10;;
66933;SDS011;53846;51.984;5.890;2022-07-05T00:05:15;83.95;;;79.78;;
66933;SDS011;53846;51.984;5.890;2022-07-05T00:07:45;76.35;;;72.60;;
66933;SDS011;53846;51.984;5.890;2022-07-05T00:10:14;84.25;;;80.07;;
66933;SDS011;53846;51.984;5.890;2022-07-05T00:12:45;83.47;;;79.32;;
66933;SDS011;53846;51.984;5.890;2022-07-05T00:15:15;90.72;;;86.25;;
66933;SDS011;53846;51.984;5.890;2022-07-05T00:17:44;93.30;;;88.65;;
66933;SDS011;53846;51.984;5.890;2022-07-05T00:20:13;88.45;;;84.07;;
66933;SDS011;53846;51.984;5.890;2022-07-05T00:22:44;91.50;;;86.97;;
66933;SDS011;53846;51.984;5.890;2022-07-05T00:25:13;101.10;;;96.03;;
66933;SDS011;53846;51.984;5.890;2022-07-05T00:27:42;147.97;;;140.40;;
66933;SDS011;53846;51.984;5.890;2022-07-05T00:30:14;115.95;;;110.13;;
66933;SDS011;53846;51.984;5.890;2022-07-05T00:32:47;101.57;;;96.53;;
66933;SDS011;53846;51.984;5.890;2022-07-05T00:35:16;103.22;;;98.07;;
66933;SDS011;53846;51.984;5.890;2022-07-05T00:37:45;102.72;;;97.53;;
66933;SDS011;53846;51.984;5.890;2022-07-05T00:40:15;102.45;;;97.28;;
66933;SDS011;53846;51.984;5.890;2022-07-05T00:42:47;98.43;;;93.45;;
66933;SDS011;53846;51.984;5.890;2022-07-05T00:45:16;102.10;;;96.97;;
66933;SDS011;53846;51.984;5.890;2022-07-05T00:47:46;94.82;;;89.88;;
66933;SDS011;53846;51.984;5.890;2022-07-05T00:50:16;89.72;;;85.28;;
66933;SDS011;53846;51.984;5.890;2022-07-05T00:52:45;89.60;;;85.18;;
66933;SDS011;53846;51.984;5.890;2022-07-05T00:55:15;93.43;;;88.72;;
66933;SDS011;53846;51.984;5.890;2022-07-05T00:57:47;92.47;;;87.80;;
66933;SDS011;53846;51.984;5.890;2022-07-05T01:00:17;104.20;;;98.90;;
66933;SDS011;53846;51.984;5.890;2022-07-05T01:02:47;97.50;;;92.55;;
66933;SDS011;53846;51.984;5.890;2022-07-05T01:05:18;99.45;;;94.47;;
66933;SDS011;53846;51.984;5.890;2022-07-05T01:07:47;98.28;;;93.40;;
66933;SDS011;53846;51.984;5.890;2022-07-05T01:10:18;105.63;;;100.28;;
66933;SDS011;53846;51.984;5.890;2022-07-05T01:12:54;93.53;;;88.85;;
66933;SDS011;53846;51.984;5.890;2022-07-05T01:15:23;99.90;;;94.75;;
66933;SDS011;53846;51.984;5.890;2022-07-05T01:17:53;94.47;;;89.75;;
66933;SDS011;53846;51.984;5.890;2022-07-05T01:20:23;91.60;;;87.07;;
66933;SDS011;53846;51.984;5.890;2022-07-05T01:22:55;89.70;;;85.20;;
66933;SDS011;53846;51.984;5.890;2022-07-05T01:25:28;102.88;;;97.72;;
66933;SDS011;53846;51.984;5.890;2022-07-05T01:27:58;97.22;;;92.32;;
66933;SDS011;53846;51.984;5.890;2022-07-05T01:30:28;88.20;;;83.80;;
66933;SDS011;53846;51.984;5.890;2022-07-05T01:33:00;107.28;;;101.85;;
66933;SDS011;53846;51.984;5.890;2022-07-05T01:35:30;96.82;;;91.93;;
66933;SDS011;53846;51.984;5.890;2022-07-05T01:38:03;103.10;;;97.90;;
66933;SDS011;53846;51.984;5.890;2022-07-05T01:40:39;99.85;;;94.88;;
66933;SDS011;53846;51.984;5.890;2022-07-05T01:43:08;101.28;;;96.22;;
66933;SDS011;53846;51.984;5.890;2022-07-05T01:45:37;102.35;;;97.25;;
66933;SDS011;53846;51.984;5.890;2022-07-05T01:48:11;99.82;;;94.88;;
66933;SDS011;53846;51.984;5.890;2022-07-05T01:50:41;100.55;;;95.53;;
66933;SDS011;53846;51.984;5.890;2022-07-05T01:53:17;432.67;;;407.03;;
66933;SDS011;53846;51.984;5.890;2022-07-05T01:55:51;129.98;;;123.53;;
66933;SDS011;53846;51.984;5.890;2022-07-05T01:58:20;108.72;;;103.38;;
66933;SDS011;53846;51.984;5.890;2022-07-05T02:00:51;96.38;;;91.57;;
66933;SDS011;53846;51.984;5.890;2022-07-05T02:03:22;94.63;;;89.90;;
66933;SDS011;53846;51.984;5.890;2022-07-05T02:05:54;94.93;;;90.22;;
66933;SDS011;53846;51.984;5.890;2022-07-05T02:08:28;90.65;;;86.15;;
66933;SDS011;53846;51.984;5.890;2022-07-05T02:10:58;98.25;;;93.32;;
66933;SDS011;53846;51.984;5.890;2022-07-05T02:13:29;93.17;;;88.57;;
66933;SDS011;53846;51.984;5.890;2022-07-05T02:16:01;102.07;;;96.95;;
66933;SDS011;53846;51.984;5.890;2022-07-05T02:18:31;98.05;;;93.18;;
66933;SDS011;53846;51.984;5.890;2022-07-05T02:21:01;106.30;;;101.03;;
66933;SDS011;53846;51.984;5.890;2022-07-05T02:23:32;105.43;;;100.18;;
66933;SDS011;53846;51.984;5.890;2022-07-05T02:26:05;102.63;;;97.53;;
66933;SDS011;53846;51.984;5.890;2022-07-05T02:28:37;101.70;;;96.68;;
66933;SDS011;53846;51.984;5.890;2022-07-05T02:31:08;111.10;;;105.57;;
66933;SDS011;53846;51.984;5.890;2022-07-05T02:33:38;106.00;;;100.78;;
66933;SDS011;53846;51.984;5.890;2022-07-05T02:36:09;101.38;;;96.43;;
66933;SDS011;53846;51.984;5.890;2022-07-05T02:38:42;98.35;;;93.47;;
66933;SDS011;53846;51.984;5.890;2022-07-05T02:41:12;100.93;;;95.93;;
66933;SDS011;53846;51.984;5.890;2022-07-05T02:43:44;110.88;;;105.38;;
66933;SDS011;53846;51.984;5.890;2022-07-05T02:46:18;114.95;;;109.25;;
66933;SDS011;53846;51.984;5.890;2022-07-05T02:48:48;99.05;;;94.15;;
66933;SDS011;53846;51.984;5.890;2022-07-05T02:51:19;106.77;;;101.50;;
66933;SDS011;53846;51.984;5.890;2022-07-05T02:53:54;108.53;;;102.82;;
66933;SDS011;53846;51.984;5.890;2022-07-05T02:56:24;105.65;;;100.43;;
66933;SDS011;53846;51.984;5.890;2022-07-05T02:58:57;102.82;;;97.75;;
66933;SDS011;53846;51.984;5.890;2022-07-05T03:01:30;333.88;;;315.42;;
66933;SDS011;53846;51.984;5.890;2022-07-05T03:04:02;108.28;;;102.90;;
66933;SDS011;53846;51.984;5.890;2022-07-05T03:06:32;99.68;;;94.68;;
66933;SDS011;53846;51.984;5.890;2022-07-05T03:09:04;96.75;;;91.95;;
66933;SDS011;53846;51.984;5.890;2022-07-05T03:11:35;101.72;;;96.57;;
66933;SDS011;53846;51.984;5.890;2022-07-05T03:14:07;101.10;;;96.07;;
66933;SDS011;53846;51.984;5.890;2022-07-05T03:16:37;110.00;;;104.47;;
66933;SDS011;53846;51.984;5.890;2022-07-05T03:19:08;107.55;;;102.18;;
66933;SDS011;53846;51.984;5.890;2022-07-05T03:21:38;103.37;;;98.27;;
66933;SDS011;53846;51.984;5.890;2022-07-05T03:24:11;110.77;;;105.27;;
66933;SDS011;53846;51.984;5.890;2022-07-05T03:26:40;117.27;;;111.43;;
66933;SDS011;53846;51.984;5.890;2022-07-05T03:29:10;107.90;;;102.57;;
66933;SDS011;53846;51.984;5.890;2022-07-05T03:31:41;112.38;;;106.72;;
66933;SDS011;53846;51.984;5.890;2022-07-05T03:34:11;114.43;;;108.75;;
66933;SDS011;53846;51.984;5.890;2022-07-05T03:36:41;114.57;;;108.90;;
66933;SDS011;53846;51.984;5.890;2022-07-05T03:39:18;110.60;;;105.13;;
66933;SDS011;53846;51.984;5.890;2022-07-05T03:41:47;112.37;;;106.77;;
66933;SDS011;53846;51.984;5.890;2022-07-05T03:44:21;116.60;;;110.87;;
66933;SDS011;53846;51.984;5.890;2022-07-05T03:46:54;124.53;;;118.40;;
66933;SDS011;53846;51.984;5.890;2022-07-05T03:49:24;116.70;;;110.90;;
66933;SDS011;53846;51.984;5.890;2022-07-05T03:51:54;122.07;;;115.93;;
66933;SDS011;53846;51.984;5.890;2022-07-05T03:54:27;121.97;;;115.87;;
66933;SDS011;53846;51.984;5.890;2022-07-05T03:56:59;120.22;;;114.28;;
66933;SDS011;53846;51.984;5.890;2022-07-05T03:59:28;115.23;;;109.57;;
66933;SDS011;53846;51.984;5.890;2022-07-05T04:01:58;117.38;;;111.63;;
66933;SDS011;53846;51.984;5.890;2022-07-05T04:04:33;110.82;;;105.38;;
66933;SDS011;53846;51.984;5.890;2022-07-05T04:07:03;118.95;;;113.05;;
66933;SDS011;53846;51.984;5.890;2022-07-05T04:09:37;114.97;;;109.28;;
66933;SDS011;53846;51.984;5.890;2022-07-05T04:12:09;111.32;;;105.82;;
66933;SDS011;53846;51.984;5.890;2022-07-05T04:14:40;120.90;;;114.90;;
66933;SDS011;53846;51.984;5.890;2022-07-05T04:17:09;117.63;;;111.80;;
66933;SDS011;53846;51.984;5.890;2022-07-05T04:19:39;115.43;;;109.70;;
66933;SDS011;53846;51.984;5.890;2022-07-05T04:22:08;115.50;;;109.82;;
66933;SDS011;53846;51.984;5.890;2022-07-05T04:24:41;333.85;;;315.77;;
66933;SDS011;53846;51.984;5.890;2022-07-05T04:27:23;128.85;;;122.25;;
66933;SDS011;53846;51.984;5.890;2022-07-05T04:29:52;114.82;;;109.05;;
66933;SDS011;53846;51.984;5.890;2022-07-05T04:32:22;123.43;;;117.20;;
66933;SDS011;53846;51.984;5.890;2022-07-05T04:34:51;114.57;;;108.85;;
66933;SDS011;53846;51.984;5.890;2022-07-05T04:37:21;119.28;;;113.32;;
66933;SDS011;53846;51.984;5.890;2022-07-05T04:39:53;130.30;;;123.65;;
66933;SDS011;53846;51.984;5.890;2022-07-05T04:42:22;134.30;;;127.50;;
66933;SDS011;53846;51.984;5.890;2022-07-05T04:44:53;125.53;;;119.23;;
66933;SDS011;53846;51.984;5.890;2022-07-05T04:47:23;122.40;;;116.28;;
66933;SDS011;53846;51.984;5.890;2022-07-05T04:49:54;119.70;;;113.70;;
66933;SDS011;53846;51.984;5.890;2022-07-05T04:52:26;120.07;;;114.05;;
66933;SDS011;53846;51.984;5.890;2022-07-05T04:54:59;110.28;;;104.80;;
66933;SDS011;53846;51.984;5.890;2022-07-05T04:57:35;120.82;;;114.57;;
66933;SDS011;53846;51.984;5.890;2022-07-05T05:00:06;114.35;;;108.65;;
66933;SDS011;53846;51.984;5.890;2022-07-05T05:02:37;122.73;;;116.63;;
66933;SDS011;53846;51.984;5.890;2022-07-05T05:05:07;130.45;;;123.97;;
66933;SDS011;53846;51.984;5.890;2022-07-05T05:07:37;119.80;;;113.80;;
66933;SDS011;53846;51.984;5.890;2022-07-05T05:10:12;113.38;;;107.70;;
66933;SDS011;53846;51.984;5.890;2022-07-05T05:12:41;117.40;;;111.50;;
66933;SDS011;53846;51.984;5.890;2022-07-05T05:15:11;125.60;;;119.37;;
66933;SDS011;53846;51.984;5.890;2022-07-05T05:17:40;128.10;;;121.65;;
66933;SDS011;53846;51.984;5.890;2022-07-05T05:20:16;122.82;;;116.57;;
66933;SDS011;53846;51.984;5.890;2022-07-05T05:22:46;127.78;;;121.30;;
66933;SDS011;53846;51.984;5.890;2022-07-05T05:25:18;134.07;;;127.30;;
66933;SDS011;53846;51.984;5.890;2022-07-05T05:27:48;123.40;;;117.18;;
66933;SDS011;53846;51.984;5.890;2022-07-05T05:30:18;118.93;;;113.05;;
66933;SDS011;53846;51.984;5.890;2022-07-05T05:32:48;136.98;;;130.10;;
66933;SDS011;53846;51.984;5.890;2022-07-05T05:35:17;129.95;;;123.38;;
66933;SDS011;53846;51.984;5.890;2022-07-05T05:37:50;131.98;;;125.32;;
66933;SDS011;53846;51.984;5.890;2022-07-05T05:40:23;139.55;;;132.45;;
66933;SDS011;53846;51.984;5.890;2022-07-05T05:42:53;133.65;;;126.85;;
66933;SDS011;53846;51.984;5.890;2022-07-05T05:45:23;135.43;;;128.18;;
66933;SDS011;53846;51.984;5.890;2022-07-05T05:47:53;134.07;;;127.28;;
66933;SDS011;53846;51.984;5.890;2022-07-05T05:50:25;126.57;;;120.15;;
66933;SDS011;53846;51.984;5.890;2022-07-05T05:52:56;133.27;;;126.53;;
66933;SDS011;53846;51.984;5.890;2022-07-05T05:55:28;136.63;;;129.63;;
66933;SDS011;53846;51.984;5.890;2022-07-05T05:58:09;134.68;;;127.80;;
66933;SDS011;53846;51.984;5.890;2022-07-05T06:00:40;134.38;;;127.53;;
66933;SDS011;53846;51.984;5.890;2022-07-05T06:03:09;134.20;;;127.35;;
66933;SDS011;53846;51.984;5.890;2022-07-05T06:05:38;220.98;;;209.10;;
66933;SDS011;53846;51.984;5.890;2022-07-05T06:08:08;196.82;;;186.70;;
66933;SDS011;53846;51.984;5.890;2022-07-05T06:10:39;171.43;;;162.65;;
66933;SDS011;53846;51.984;5.890;2022-07-05T06:13:09;174.90;;;165.82;;
66933;SDS011;53846;51.984;5.890;2022-07-05T06:15:40;155.52;;;147.40;;
66933;SDS011;53846;51.984;5.890;2022-07-05T06:18:10;148.88;;;141.23;;
66933;SDS011;53846;51.984;5.890;2022-07-05T06:20:39;161.20;;;153.02;;
66933;SDS011;53846;51.984;5.890;2022-07-05T06:23:09;153.13;;;145.23;;
66933;SDS011;53846;51.984;5.890;2022-07-05T06:25:40;148.95;;;141.23;;
66933;SDS011;53846;51.984;5.890;2022-07-05T06:28:09;144.57;;;137.18;;
66933;SDS011;53846;51.984;5.890;2022-07-05T06:30:38;134.60;;;127.65;;
66933;SDS011;53846;51.984;5.890;2022-07-05T06:33:08;148.27;;;140.68;;
66933;SDS011;53846;51.984;5.890;2022-07-05T06:35:37;148.60;;;140.98;;
66933;SDS011;53846;51.984;5.890;2022-07-05T06:38:07;148.50;;;140.88;;
66933;SDS011;53846;51.984;5.890;2022-07-05T06:40:40;155.23;;;147.23;;
66933;SDS011;53846;51.984;5.890;2022-07-05T06:43:13;151.75;;;143.95;;
66933;SDS011;53846;51.984;5.890;2022-07-05T06:46:03;146.35;;;138.85;;
66933;SDS011;53846;51.984;5.890;2022-07-05T06:48:32;153.20;;;145.38;;
66933;SDS011;53846;51.984;5.890;2022-07-05T06:51:02;160.20;;;152.05;;
66933;SDS011;53846;51.984;5.890;2022-07-05T06:53:31;157.18;;;149.10;;
66933;SDS011;53846;51.984;5.890;2022-07-05T06:56:06;158.95;;;150.75;;
66933;SDS011;53846;51.984;5.890;2022-07-05T06:58:35;151.27;;;143.60;;
66933;SDS011;53846;51.984;5.890;2022-07-05T07:01:04;163.93;;;154.85;;
66933;SDS011;53846;51.984;5.890;2022-07-05T07:03:34;154.82;;;146.90;;
66933;SDS011;53846;51.984;5.890;2022-07-05T07:06:04;160.25;;;152.05;;
66933;SDS011;53846;51.984;5.890;2022-07-05T07:08:33;171.30;;;162.48;;
66933;SDS011;53846;51.984;5.890;2022-07-05T07:11:23;155.93;;;147.90;;
66933;SDS011;53846;51.984;5.890;2022-07-05T07:13:52;158.57;;;150.45;;
66933;SDS011;53846;51.984;5.890;2022-07-05T07:16:21;165.35;;;156.93;;
66933;SDS011;53846;51.984;5.890;2022-07-05T07:18:50;159.00;;;150.82;;
66933;SDS011;53846;51.984;5.890;2022-07-05T07:21:20;163.40;;;154.75;;
66933;SDS011;53846;51.984;5.890;2022-07-05T07:23:49;160.75;;;152.50;;
66933;SDS011;53846;51.984;5.890;2022-07-05T07:26:18;211.00;;;198.32;;
66933;SDS011;53846;51.984;5.890;2022-07-05T07:28:50;240.60;;;228.13;;
66933;SDS011;53846;51.984;5.890;2022-07-05T07:31:19;197.13;;;186.93;;
66933;SDS011;53846;51.984;5.890;2022-07-05T07:33:48;177.20;;;167.95;;
66933;SDS011;53846;51.984;5.890;2022-07-05T07:36:17;182.30;;;172.80;;
66933;SDS011;53846;51.984;5.890;2022-07-05T07:38:49;174.35;;;165.40;;
66933;SDS011;53846;51.984;5.890;2022-07-05T07:41:22;159.77;;;151.57;;
66933;SDS011;53846;51.984;5.890;2022-07-05T07:44:02;167.88;;;159.18;;
66933;SDS011;53846;51.984;5.890;2022-07-05T07:46:42;163.77;;;155.30;;
66933;SDS011;53846;51.984;5.890;2022-07-05T07:49:14;142.73;;;135.40;;
66933;SDS011;53846;51.984;5.890;2022-07-05T07:51:43;156.98;;;148.88;;
66933;SDS011;53846;51.984;5.890;2022-07-05T07:54:13;154.52;;;146.60;;
66933;SDS011;53846;51.984;5.890;2022-07-05T07:56:42;147.73;;;140.07;;
66933;SDS011;53846;51.984;5.890;2022-07-05T07:59:14;168.43;;;159.75;;
66933;SDS011;53846;51.984;5.890;2022-07-05T08:01:47;150.60;;;142.88;;
66933;SDS011;53846;51.984;5.890;2022-07-05T08:04:19;138.30;;;131.02;;
66933;SDS011;53846;51.984;5.890;2022-07-05T08:06:48;143.40;;;136.00;;
66933;SDS011;53846;51.984;5.890;2022-07-05T08:09:20;119.72;;;113.60;;
66933;SDS011;53846;51.984;5.890;2022-07-05T08:11:49;119.22;;;113.18;;
66933;SDS011;53846;51.984;5.890;2022-07-05T08:14:21;123.70;;;117.43;;
66933;SDS011;53846;51.984;5.890;2022-07-05T08:16:51;99.63;;;94.60;;
66933;SDS011;53846;51.984;5.890;2022-07-05T08:19:20;91.55;;;86.97;;
66933;SDS011;53846;51.984;5.890;2022-07-05T08:22:02;50.15;;;47.63;;
66933;SDS011;53846;51.984;5.890;2022-07-05T08:24:33;49.03;;;46.63;;
66933;SDS011;53846;51.984;5.890;2022-07-05T08:27:03;39.78;;;37.80;;
66933;SDS011;53846;51.984;5.890;2022-07-05T08:29:35;44.25;;;42.10;;
66933;SDS011;53846;51.984;5.890;2022-07-05T08:32:05;51.30;;;48.80;;
66933;SDS011;53846;51.984;5.890;2022-07-05T08:34:34;48.25;;;45.80;;
66933;SDS011;53846;51.984;5.890;2022-07-05T08:37:04;46.97;;;44.67;;
66933;SDS011;53846;51.984;5.890;2022-07-05T08:39:34;26.25;;;24.92;;
66933;SDS011;53846;51.984;5.890;2022-07-05T08:42:04;26.83;;;25.48;;
66933;SDS011;53846;51.984;5.890;2022-07-05T08:44:40;25.65;;;24.40;;
66933;SDS011;53846;51.984;5.890;2022-07-05T08:47:12;22.33;;;21.25;;
66933;SDS011;53846;51.984;5.890;2022-07-05T08:49:42;108.38;;;102.32;;
66933;SDS011;53846;51.984;5.890;2022-07-05T08:52:13;37.15;;;34.85;;
66933;SDS011;53846;51.984;5.890;2022-07-05T08:54:43;37.58;;;35.70;;
66933;SDS011;53846;51.984;5.890;2022-07-05T08:57:15;44.55;;;42.35;;
66933;SDS011;53846;51.984;5.890;2022-07-05T08:59:46;34.67;;;32.97;;
66933;SDS011;53846;51.984;5.890;2022-07-05T09:02:16;40.80;;;38.78;;
66933;SDS011;53846;51.984;5.890;2022-07-05T09:04:45;42.45;;;40.22;;
66933;SDS011;53846;51.984;5.890;2022-07-05T09:07:19;34.75;;;33.08;;
66933;SDS011;53846;51.984;5.890;2022-07-05T09:09:53;31.83;;;30.17;;
66933;SDS011;53846;51.984;5.890;2022-07-05T09:12:28;32.88;;;31.17;;
66933;SDS011;53846;51.984;5.890;2022-07-05T09:14:59;35.17;;;33.35;;
66933;SDS011;53846;51.984;5.890;2022-07-05T09:17:30;35.17;;;33.45;;
66933;SDS011;53846;51.984;5.890;2022-07-05T09:20:06;18.50;;;17.63;;
66933;SDS011;53846;51.984;5.890;2022-07-05T09:22:44;27.02;;;25.73;;
66933;SDS011;53846;51.984;5.890;2022-07-05T09:25:15;27.80;;;26.40;;
66933;SDS011;53846;51.984;5.890;2022-07-05T09:27:47;25.88;;;24.58;;
66933;SDS011;53846;51.984;5.890;2022-07-05T09:30:29;27.38;;;26.08;;
66933;SDS011;53846;51.984;5.890;2022-07-05T09:33:00;30.83;;;29.40;;
66933;SDS011;53846;51.984;5.890;2022-07-05T09:35:34;34.53;;;32.88;;
66933;SDS011;53846;51.984;5.890;2022-07-05T09:38:05;33.72;;;32.13;;
66933;SDS011;53846;51.984;5.890;2022-07-05T09:40:45;33.63;;;31.88;;
66933;SDS011;53846;51.984;5.890;2022-07-05T09:43:16;35.70;;;34.00;;
66933;SDS011;53846;51.984;5.890;2022-07-05T09:45:53;42.35;;;40.35;;
66933;SDS011;53846;51.984;5.890;2022-07-05T09:48:23;41.60;;;39.58;;
66933;SDS011;53846;51.984;5.890;2022-07-05T09:50:55;45.20;;;42.92;;
66933;SDS011;53846;51.984;5.890;2022-07-05T09:53:43;40.60;;;38.65;;
66933;SDS011;53846;51.984;5.890;2022-07-05T09:56:13;48.67;;;46.20;;
66933;SDS011;53846;51.984;5.890;2022-07-05T09:58:43;45.53;;;43.25;;
66933;SDS011;53846;51.984;5.890;2022-07-05T10:01:28;54.17;;;51.47;;
66933;SDS011;53846;51.984;5.890;2022-07-05T10:03:59;69.25;;;65.78;;
66933;SDS011;53846;51.984;5.890;2022-07-05T10:06:31;64.88;;;61.55;;
66933;SDS011;53846;51.984;5.890;2022-07-05T10:09:01;56.72;;;53.90;;
66933;SDS011;53846;51.984;5.890;2022-07-05T10:11:30;55.42;;;52.60;;
66933;SDS011;53846;51.984;5.890;2022-07-05T10:13:59;52.53;;;49.95;;
66933;SDS011;53846;51.984;5.890;2022-07-05T10:16:39;41.38;;;39.38;;
66933;SDS011;53846;51.984;5.890;2022-07-05T10:19:10;48.40;;;45.95;;
66933;SDS011;53846;51.984;5.890;2022-07-05T10:21:47;51.53;;;48.97;;
66933;SDS011;53846;51.984;5.890;2022-07-05T10:24:17;52.80;;;50.03;;
66933;SDS011;53846;51.984;5.890;2022-07-05T10:26:46;56.70;;;53.60;;
66933;SDS011;53846;51.984;5.890;2022-07-05T10:29:16;33.53;;;31.85;;
66933;SDS011;53846;51.984;5.890;2022-07-05T10:31:49;34.92;;;33.20;;
66933;SDS011;53846;51.984;5.890;2022-07-05T10:34:18;35.10;;;33.28;;
66933;SDS011;53846;51.984;5.890;2022-07-05T10:36:47;37.65;;;35.70;;
66933;SDS011;53846;51.984;5.890;2022-07-05T10:39:16;32.05;;;30.23;;
66933;SDS011;53846;51.984;5.890;2022-07-05T10:41:49;37.97;;;36.10;;
66933;SDS011;53846;51.984;5.890;2022-07-05T10:44:25;37.15;;;35.35;;
66933;SDS011;53846;51.984;5.890;2022-07-05T10:47:05;28.33;;;27.02;;
66933;SDS011;53846;51.984;5.890;2022-07-05T10:49:36;37.60;;;35.70;;
66933;SDS011;53846;51.984;5.890;2022-07-05T10:52:20;41.60;;;39.60;;
66933;SDS011;53846;51.984;5.890;2022-07-05T11:00:48;35.40;;;33.33;;
66933;SDS011;53846;51.984;5.890;2022-07-05T11:03:40;39.97;;;38.05;;
66933;SDS011;53846;51.984;5.890;2022-07-05T11:06:18;41.20;;;39.17;;
66933;SDS011;53846;51.984;5.890;2022-07-05T11:12:05;38.42;;;36.63;;
66933;SDS011;53846;51.984;5.890;2022-07-05T11:14:36;39.03;;;37.17;;
66933;SDS011;53846;51.984;5.890;2022-07-05T11:17:21;43.17;;;41.03;;
66933;SDS011;53846;51.984;5.890;2022-07-05T11:20:02;53.15;;;50.53;;
66933;SDS011;53846;51.984;5.890;2022-07-05T11:22:34;43.65;;;41.40;;
66933;SDS011;53846;51.984;5.890;2022-07-05T11:25:05;50.05;;;47.58;;
66933;SDS011;53846;51.984;5.890;2022-07-05T11:27:36;45.85;;;43.60;;
66933;SDS011;53846;51.984;5.890;2022-07-05T11:30:25;56.60;;;53.80;;
66933;SDS011;53846;51.984;5.890;2022-07-05T11:32:54;54.60;;;51.92;;
66933;SDS011;53846;51.984;5.890;2022-07-05T11:35:31;48.22;;;45.90;;
66933;SDS011;53846;51.984;5.890;2022-07-05T11:38:06;44.17;;;42.08;;
66933;SDS011;53846;51.984;5.890;2022-07-05T11:40:36;44.72;;;42.55;;
66933;SDS011;53846;51.984;5.890;2022-07-05T11:43:06;44.15;;;42.03;;
66933;SDS011;53846;51.984;5.890;2022-07-05T11:45:36;40.88;;;38.95;;
66933;SDS011;53846;51.984;5.890;2022-07-05T11:48:06;40.47;;;38.55;;
66933;SDS011;53846;51.984;5.890;2022-07-05T11:50:46;42.55;;;40.55;;
66933;SDS011;53846;51.984;5.890;2022-07-05T11:53:24;41.97;;;39.85;;
66933;SDS011;53846;51.984;5.890;2022-07-05T11:55:54;29.73;;;28.35;;
66933;SDS011;53846;51.984;5.890;2022-07-05T11:58:30;28.25;;;26.92;;
66933;SDS011;53846;51.984;5.890;2022-07-05T12:01:00;26.90;;;25.63;;
66933;SDS011;53846;51.984;5.890;2022-07-05T12:03:29;27.15;;;25.90;;
66933;SDS011;53846;51.984;5.890;2022-07-05T12:06:08;26.23;;;25.02;;
66933;SDS011;53846;51.984;5.890;2022-07-05T12:08:39;23.77;;;22.67;;
66933;SDS011;53846;51.984;5.890;2022-07-05T12:11:09;22.10;;;21.08;;
66933;SDS011;53846;51.984;5.890;2022-07-05T12:13:51;26.25;;;25.05;;
66933;SDS011;53846;51.984;5.890;2022-07-05T12:16:21;23.90;;;22.80;;
66933;SDS011;53846;51.984;5.890;2022-07-05T12:18:51;24.15;;;23.00;;
66933;SDS011;53846;51.984;5.890;2022-07-05T12:21:28;24.17;;;23.08;;
66933;SDS011;53846;51.984;5.890;2022-07-05T12:23:57;25.27;;;23.80;;
66933;SDS011;53846;51.984;5.890;2022-07-05T12:26:30;26.17;;;24.98;;
66933;SDS011;53846;51.984;5.890;2022-07-05T12:28:59;24.88;;;23.73;;
66933;SDS011;53846;51.984;5.890;2022-07-05T12:31:28;26.20;;;24.98;;
66933;SDS011;53846;51.984;5.890;2022-07-05T12:34:15;27.30;;;26.05;;
66933;SDS011;53846;51.984;5.890;2022-07-05T12:36:49;27.55;;;26.20;;
66933;SDS011;53846;51.984;5.890;2022-07-05T12:39:18;110.03;;;103.45;;
66933;SDS011;53846;51.984;5.890;2022-07-05T12:41:48;79.45;;;75.55;;
66933;SDS011;53846;51.984;5.890;2022-07-05T12:44:20;69.07;;;65.20;;
66933;SDS011;53846;51.984;5.890;2022-07-05T12:46:49;53.25;;;50.67;;
66933;SDS011;53846;51.984;5.890;2022-07-05T12:49:19;42.65;;;40.63;;
66933;SDS011;53846;51.984;5.890;2022-07-05T12:51:51;42.97;;;40.92;;
66933;SDS011;53846;51.984;5.890;2022-07-05T12:54:21;39.55;;;37.67;;
66933;SDS011;53846;51.984;5.890;2022-07-05T12:57:03;33.13;;;31.58;;
66933;SDS011;53846;51.984;5.890;2022-07-05T12:59:56;121.47;;;114.20;;
66933;SDS011;53846;51.984;5.890;2022-07-05T13:02:35;82.40;;;78.32;;
66933;SDS011;53846;51.984;5.890;2022-07-05T13:05:06;70.82;;;67.43;;
66933;SDS011;53846;51.984;5.890;2022-07-05T13:07:48;65.85;;;62.58;;
66933;SDS011;53846;51.984;5.890;2022-07-05T13:10:18;58.88;;;56.03;;
66933;SDS011;53846;51.984;5.890;2022-07-05T13:12:48;49.47;;;47.10;;
66933;SDS011;53846;51.984;5.890;2022-07-05T13:15:18;38.08;;;36.25;;
66933;SDS011;53846;51.984;5.890;2022-07-05T13:17:47;40.50;;;38.58;;
66933;SDS011;53846;51.984;5.890;2022-07-05T13:20:17;37.70;;;35.90;;
66933;SDS011;53846;51.984;5.890;2022-07-05T13:22:51;37.80;;;36.00;;
66933;SDS011;53846;51.984;5.890;2022-07-05T13:25:20;33.25;;;31.65;;
66933;SDS011;53846;51.984;5.890;2022-07-05T13:27:49;29.30;;;27.95;;
66933;SDS011;53846;51.984;5.890;2022-07-05T13:30:18;31.98;;;30.50;;
66933;SDS011;53846;51.984;5.890;2022-07-05T13:32:47;28.92;;;27.58;;
66933;SDS011;53846;51.984;5.890;2022-07-05T13:35:17;29.33;;;27.98;;
66933;SDS011;53846;51.984;5.890;2022-07-05T13:37:46;28.40;;;27.05;;
66933;SDS011;53846;51.984;5.890;2022-07-05T13:40:17;25.40;;;24.25;;
66933;SDS011;53846;51.984;5.890;2022-07-05T13:42:47;22.67;;;21.60;;
66933;SDS011;53846;51.984;5.890;2022-07-05T13:45:16;24.75;;;23.63;;
66933;SDS011;53846;51.984;5.890;2022-07-05T13:47:45;23.80;;;22.70;;
66933;SDS011;53846;51.984;5.890;2022-07-05T13:50:14;25.02;;;23.88;;
66933;SDS011;53846;51.984;5.890;2022-07-05T13:52:56;22.92;;;21.88;;
66933;SDS011;53846;51.984;5.890;2022-07-05T13:55:28;21.77;;;20.77;;
66933;SDS011;53846;51.984;5.890;2022-07-05T13:57:57;24.33;;;23.20;;
66933;SDS011;53846;51.984;5.890;2022-07-05T14:00:26;19.45;;;18.58;;
66933;SDS011;53846;51.984;5.890;2022-07-05T14:02:56;21.70;;;20.70;;
66933;SDS011;53846;51.984;5.890;2022-07-05T14:05:25;19.02;;;18.17;;
66933;SDS011;53846;51.984;5.890;2022-07-05T14:07:54;22.75;;;21.70;;
66933;SDS011;53846;51.984;5.890;2022-07-05T14:10:23;21.15;;;20.20;;
66933;SDS011;53846;51.984;5.890;2022-07-05T14:12:55;20.83;;;19.88;;
66933;SDS011;53846;51.984;5.890;2022-07-05T14:15:24;22.90;;;21.85;;
66933;SDS011;53846;51.984;5.890;2022-07-05T14:17:53;20.45;;;19.52;;
66933;SDS011;53846;51.984;5.890;2022-07-05T14:20:23;22.02;;;20.88;;
66933;SDS011;53846;51.984;5.890;2022-07-05T14:22:52;82.10;;;77.63;;
66933;SDS011;53846;51.984;5.890;2022-07-05T14:25:21;70.85;;;67.43;;
66933;SDS011;53846;51.984;5.890;2022-07-05T14:27:50;54.85;;;52.17;;
66933;SDS011;53846;51.984;5.890;2022-07-05T14:30:22;37.20;;;35.42;;
66933;SDS011;53846;51.984;5.890;2022-07-05T14:32:53;26.55;;;25.30;;
66933;SDS011;53846;51.984;5.890;2022-07-05T14:35:22;21.92;;;20.92;;
66933;SDS011;53846;51.984;5.890;2022-07-05T14:37:52;21.58;;;20.60;;
66933;SDS011;53846;51.984;5.890;2022-07-05T14:40:21;21.52;;;20.55;;
66933;SDS011;53846;51.984;5.890;2022-07-05T14:42:52;17.83;;;17.02;;
66933;SDS011;53846;51.984;5.890;2022-07-05T14:45:24;16.60;;;15.88;;